createdAt,value
2018-03-29T00:00:31.953Z,15.35
2018-03-29T00:01:39.266Z,14.23
2018-03-29T00:02:51.837Z,13.98
2018-03-29T00:03:59.889Z,14.90
2018-03-29T00:05:07.285Z,14.65
2018-03-29T00:06:14.902Z,14.10
2018-03-29T00:07:22.506Z,14.73
2018-03-29T00:08:32.482Z,14.57
2018-03-29T00:09:40.397Z,13.88
2018-03-29T00:10:49.675Z,13.20
2018-03-29T00:12:01.717Z,14.00
2018-03-29T00:13:08.836Z,12.75
2018-03-29T00:14:16.078Z,12.45
2018-03-29T00:15:23.465Z,11.20
2018-03-29T00:16:31.216Z,10.90
2018-03-29T00:17:39.327Z,12.77
2018-03-29T00:18:46.529Z,11.10
2018-03-29T00:19:53.616Z,10.73
2018-03-29T00:21:00.818Z,11.88
2018-03-29T00:22:08.517Z,9.70
2018-03-29T00:23:15.944Z,9.68
2018-03-29T00:24:22.438Z,10.27
2018-03-29T00:25:28.877Z,10.07
2018-03-29T00:26:40.068Z,9.20
2018-03-29T00:27:46.226Z,8.45
2018-03-29T00:28:52.622Z,8.57
2018-03-29T00:30:04.832Z,8.95
2018-03-29T00:31:11.344Z,9.85
2018-03-29T00:32:17.537Z,9.15
2018-03-29T00:33:24.441Z,8.50
2018-03-29T00:34:31.032Z,8.93
2018-03-29T00:35:37.721Z,8.80
2018-03-29T00:36:43.921Z,8.07
2018-03-29T00:37:55.533Z,8.88
2018-03-29T00:39:01.960Z,9.02
2018-03-29T00:40:07.981Z,8.07
2018-03-29T00:41:14.358Z,8.38
2018-03-29T00:42:20.778Z,8.75
2018-03-29T00:43:32.932Z,9.63
2018-03-29T00:44:39.192Z,9.70
2018-03-29T00:45:45.390Z,8.98
2018-03-29T00:46:51.894Z,8.90
2018-03-29T00:47:58.389Z,8.45
2018-03-29T00:49:04.548Z,8.02
2018-03-29T00:50:10.952Z,9.40
2018-03-29T00:51:20.521Z,9.30
2018-03-29T00:52:26.757Z,8.60
2018-03-29T00:53:44.552Z,8.48
2018-03-29T00:54:51.165Z,9.27
2018-03-29T00:55:57.333Z,8.50
2018-03-29T00:57:03.654Z,9.27
2018-03-29T00:58:09.932Z,9.50
2018-03-29T00:59:16.350Z,8.52
2018-03-29T01:00:22.522Z,9.35
2018-03-29T01:01:27.743Z,9.18
2018-03-29T01:02:33.923Z,8.43
2018-03-29T01:03:40.436Z,8.73
2018-03-29T01:04:46.621Z,9.90
2018-03-29T01:05:53.350Z,10.30
2018-03-29T01:06:59.840Z,9.55
2018-03-29T01:08:06.049Z,10.48
2018-03-29T01:09:12.372Z,10.70
2018-03-29T01:10:21.154Z,11.15
2018-03-29T01:11:29.458Z,10.93
2018-03-29T01:12:36.985Z,10.60
2018-03-29T01:13:43.678Z,11.88
2018-03-29T01:14:50.015Z,11.48
2018-03-29T01:15:56.599Z,10.82
2018-03-29T01:17:03.265Z,12.45
2018-03-29T01:18:09.515Z,11.20
2018-03-29T01:19:23.905Z,11.27
2018-03-29T01:20:39.493Z,11.00
2018-03-29T01:21:45.781Z,12.73
2018-03-29T01:22:53.378Z,11.20
2018-03-29T01:24:00.021Z,10.88
2018-03-29T01:25:06.282Z,11.68
2018-03-29T01:26:12.873Z,12.60
2018-03-29T01:27:18.902Z,11.43
2018-03-29T01:28:28.271Z,11.63
2018-03-29T01:29:34.468Z,13.80
2018-03-29T01:30:40.856Z,11.75
2018-03-29T01:31:47.633Z,11.82
2018-03-29T01:32:54.752Z,12.60
2018-03-29T01:34:01.015Z,12.25
2018-03-29T01:35:07.578Z,12.40
2018-03-29T01:36:13.997Z,13.48
2018-03-29T01:37:20.438Z,13.02
2018-03-29T01:38:26.715Z,13.02
2018-03-29T01:39:32.938Z,13.55
2018-03-29T01:40:39.460Z,14.15
2018-03-29T01:41:46.654Z,13.48
2018-03-29T01:42:52.895Z,13.70
2018-03-29T01:43:59.116Z,13.77
2018-03-29T01:45:06.502Z,12.70
2018-03-29T01:46:13.042Z,14.55
2018-03-29T01:47:19.428Z,13.73
2018-03-29T01:48:26.602Z,13.77
2018-03-29T01:49:33.684Z,14.82
2018-03-29T01:50:40.218Z,14.38
2018-03-29T01:51:46.707Z,14.65
2018-03-29T01:52:53.149Z,14.40
2018-03-29T01:54:06.012Z,15.32
2018-03-29T01:55:13.198Z,15.38
2018-03-29T01:56:19.914Z,14.75
2018-03-29T01:57:26.137Z,14.70
2018-03-29T01:58:32.739Z,14.15
2018-03-29T01:59:39.249Z,14.95
2018-03-29T02:00:45.613Z,15.75
2018-03-29T02:01:55.713Z,15.55
2018-03-29T02:03:02.315Z,14.90
2018-03-29T02:04:08.809Z,15.15
2018-03-29T02:05:15.324Z,17.17
2018-03-29T02:06:27.421Z,15.55
2018-03-29T02:07:33.667Z,16.23
2018-03-29T02:08:40.087Z,16.65
2018-03-29T02:09:46.388Z,15.13
2018-03-29T02:10:52.728Z,16.77
2018-03-29T02:11:58.967Z,15.38
2018-03-29T02:13:05.618Z,15.73
2018-03-29T02:14:11.856Z,16.85
2018-03-29T02:15:20.227Z,15.63
2018-03-29T02:16:27.784Z,14.40
2018-03-29T02:17:34.007Z,16.40
2018-03-29T02:18:40.253Z,15.80
2018-03-29T02:19:46.438Z,15.13
2018-03-29T02:20:57.850Z,15.52
2018-03-29T02:22:09.368Z,14.68
2018-03-29T02:23:16.540Z,14.82
2018-03-29T02:24:22.691Z,16.45
2018-03-29T02:25:36.436Z,15.20
2018-03-29T02:26:42.632Z,15.27
2018-03-29T02:27:48.902Z,15.10
2018-03-29T02:28:55.535Z,15.55
2018-03-29T02:30:01.759Z,15.63
2018-03-29T02:31:08.228Z,14.82
2018-03-29T02:32:14.242Z,15.38
2018-03-29T02:33:21.447Z,15.90
2018-03-29T02:34:27.407Z,14.87
2018-03-29T02:35:34.029Z,14.50
2018-03-29T02:36:49.907Z,13.77
2018-03-29T02:37:56.106Z,14.38
2018-03-29T02:39:02.297Z,14.75
2018-03-29T02:40:08.259Z,13.85
2018-03-29T02:41:14.241Z,13.73
2018-03-29T02:42:20.481Z,13.70
2018-03-29T02:43:26.714Z,13.18
2018-03-29T02:44:32.903Z,11.93
2018-03-29T02:45:39.149Z,13.05
2018-03-29T02:46:45.481Z,12.35
2018-03-29T02:47:51.937Z,11.20
2018-03-29T02:48:58.164Z,13.77
2018-03-29T02:50:03.998Z,12.55
2018-03-29T02:51:10.169Z,12.13
2018-03-29T02:52:16.557Z,13.07
2018-03-29T02:53:22.731Z,12.90
2018-03-29T02:54:29.440Z,13.80
2018-03-29T02:55:35.729Z,13.10
2018-03-29T02:56:44.801Z,13.10
2018-03-29T02:58:00.320Z,14.52
2018-03-29T02:59:06.776Z,12.30
2018-03-29T03:00:13.025Z,12.88
2018-03-29T03:01:19.250Z,13.10
2018-03-29T03:02:26.292Z,13.05
2018-03-29T03:03:32.485Z,12.82
2018-03-29T03:04:41.701Z,12.73
2018-03-29T03:05:47.932Z,11.70
2018-03-29T03:06:55.487Z,12.37
2018-03-29T03:08:01.735Z,12.50
2018-03-29T03:09:07.995Z,11.95
2018-03-29T03:10:14.334Z,12.27
2018-03-29T03:11:20.547Z,10.98
2018-03-29T03:12:26.810Z,12.02
2018-03-29T03:13:35.678Z,11.25
2018-03-29T03:14:41.884Z,10.68
2018-03-29T03:15:48.150Z,11.32
2018-03-29T03:16:54.500Z,11.70
2018-03-29T03:18:00.738Z,11.38
2018-03-29T03:19:06.938Z,10.95
2018-03-29T03:20:13.152Z,11.93
2018-03-29T03:21:19.379Z,10.07
2018-03-29T03:22:25.768Z,10.30
2018-03-29T03:23:32.816Z,9.82
2018-03-29T03:24:39.021Z,10.07
2018-03-29T03:25:50.453Z,9.20
2018-03-29T03:26:57.809Z,10.15
2018-03-29T03:28:04.065Z,10.07
2018-03-29T03:29:10.296Z,9.48
2018-03-29T03:30:16.535Z,9.82
2018-03-29T03:31:22.756Z,9.27
2018-03-29T03:32:28.976Z,10.80
2018-03-29T03:33:40.182Z,8.80
2018-03-29T03:34:47.015Z,9.50
2018-03-29T03:35:56.243Z,8.98
2018-03-29T03:37:02.458Z,9.07
2018-03-29T03:38:08.829Z,8.13
2018-03-29T03:39:15.049Z,8.55
2018-03-29T03:40:21.286Z,7.50
2018-03-29T03:41:27.473Z,7.37
2018-03-29T03:42:33.696Z,7.82
2018-03-29T03:43:39.898Z,8.48
2018-03-29T03:44:46.097Z,9.00
2018-03-29T03:45:52.553Z,9.25
2018-03-29T03:46:58.729Z,9.48
2018-03-29T03:48:04.944Z,10.07
2018-03-29T03:49:11.304Z,9.32
2018-03-29T03:50:20.937Z,9.27
2018-03-29T03:51:27.177Z,9.75
2018-03-29T03:52:33.401Z,10.05
2018-03-29T03:53:39.666Z,8.70
2018-03-29T03:54:50.866Z,7.65
2018-03-29T03:55:57.128Z,7.50
2018-03-29T03:57:03.317Z,7.40
2018-03-29T03:58:09.861Z,7.62
2018-03-29T03:59:16.310Z,6.50
2018-03-29T04:00:24.673Z,6.50
2018-03-29T04:01:30.817Z,7.43
2018-03-29T04:02:37.003Z,5.90
2018-03-29T04:03:44.269Z,5.85
2018-03-29T04:04:51.042Z,6.07
2018-03-29T04:05:57.244Z,6.00
2018-03-29T04:07:08.520Z,5.87
2018-03-29T04:08:14.736Z,5.35
2018-03-29T04:09:20.927Z,5.47
2018-03-29T04:10:27.436Z,5.30
2018-03-29T04:11:33.932Z,4.40
2018-03-29T04:12:40.489Z,3.80
2018-03-29T04:13:50.613Z,4.62
2018-03-29T04:15:04.737Z,4.37
2018-03-29T04:16:10.932Z,4.10
2018-03-29T04:17:17.416Z,4.28
2018-03-29T04:18:23.988Z,4.53
2018-03-29T04:19:30.173Z,4.37
2018-03-29T04:20:36.518Z,3.58
2018-03-29T04:21:42.725Z,3.67
2018-03-29T04:22:48.917Z,3.25
2018-03-29T04:23:55.162Z,3.20
2018-03-29T04:25:01.377Z,2.80
2018-03-29T04:26:07.738Z,3.35
2018-03-29T04:27:14.192Z,3.08
2018-03-29T04:28:20.018Z,3.40
2018-03-29T04:29:26.325Z,3.60
2018-03-29T04:30:36.960Z,3.08
2018-03-29T04:31:42.952Z,3.28
2018-03-29T04:32:49.188Z,2.72
2018-03-29T04:33:56.828Z,2.70
2018-03-29T04:35:03.277Z,2.45
2018-03-29T04:36:09.638Z,2.60
2018-03-29T04:37:23.607Z,2.58
2018-03-29T04:38:35.380Z,2.10
2018-03-29T04:39:41.619Z,2.72
2018-03-29T04:40:47.869Z,2.45
2018-03-29T04:41:58.007Z,2.37
2018-03-29T04:43:04.217Z,2.25
2018-03-29T04:44:14.352Z,2.37
2018-03-29T04:45:22.960Z,2.20
2018-03-29T04:46:29.215Z,2.25
2018-03-29T04:47:35.441Z,2.55
2018-03-29T04:48:41.653Z,2.33
2018-03-29T04:49:53.406Z,2.17
2018-03-29T04:51:00.413Z,2.30
2018-03-29T04:52:06.653Z,2.67
2018-03-29T04:53:12.882Z,2.50
2018-03-29T04:54:19.066Z,2.55
2018-03-29T04:55:25.340Z,2.15
2018-03-29T04:56:31.551Z,1.58
2018-03-29T04:57:37.797Z,1.60
2018-03-29T04:58:44.066Z,2.33
2018-03-29T04:59:52.400Z,1.90
2018-03-29T05:00:58.657Z,1.70
2018-03-29T05:02:14.706Z,2.35
2018-03-29T05:03:20.990Z,1.42
2018-03-29T05:04:27.226Z,2.30
2018-03-29T05:05:33.509Z,2.12
2018-03-29T05:06:40.011Z,1.83
2018-03-29T05:07:46.271Z,2.10
2018-03-29T05:08:57.164Z,1.90
2018-03-29T05:10:03.487Z,2.30
2018-03-29T05:11:12.634Z,1.90
2018-03-29T05:12:18.842Z,1.75
2018-03-29T05:13:26.377Z,1.50
2018-03-29T05:14:32.797Z,2.08
2018-03-29T05:15:39.035Z,1.90
2018-03-29T05:16:45.241Z,2.15
2018-03-29T05:17:51.495Z,1.95
2018-03-29T05:18:57.741Z,1.48
2018-03-29T05:20:03.661Z,2.40
2018-03-29T05:21:10.036Z,2.08
2018-03-29T05:22:16.299Z,1.90
2018-03-29T05:23:29.513Z,1.95
2018-03-29T05:24:39.594Z,1.95
2018-03-29T05:25:46.651Z,2.22
2018-03-29T05:26:53.780Z,2.10
2018-03-29T05:27:59.849Z,2.00
2018-03-29T05:29:06.169Z,1.83
2018-03-29T05:30:12.455Z,2.15
2018-03-29T05:31:18.697Z,2.10
2018-03-29T05:32:24.913Z,2.25
2018-03-29T05:33:31.545Z,2.12
2018-03-29T05:34:38.152Z,2.10
2018-03-29T05:35:45.450Z,1.87
2018-03-29T05:36:51.676Z,1.92
2018-03-29T05:37:57.935Z,2.15
2018-03-29T05:39:09.928Z,2.20
2018-03-29T05:40:20.078Z,2.25
2018-03-29T05:41:26.535Z,1.80
2018-03-29T05:42:32.549Z,2.12
2018-03-29T05:43:38.829Z,2.00
2018-03-29T05:44:45.095Z,2.50
2018-03-29T05:45:51.398Z,2.35
2018-03-29T05:46:57.929Z,2.15
2018-03-29T05:48:04.453Z,2.72
2018-03-29T05:49:10.709Z,2.42
2018-03-29T05:50:19.172Z,2.50
2018-03-29T05:51:25.466Z,2.25
2018-03-29T05:52:33.679Z,2.15
2018-03-29T05:53:39.951Z,2.60
2018-03-29T05:54:47.439Z,2.95
2018-03-29T05:55:54.106Z,2.20
2018-03-29T05:57:00.366Z,2.42
2018-03-29T05:58:06.702Z,2.40
2018-03-29T05:59:12.958Z,2.60
2018-03-29T06:00:19.484Z,2.50
2018-03-29T06:01:30.250Z,2.33
2018-03-29T06:02:37.515Z,2.35
2018-03-29T06:03:43.882Z,2.55
2018-03-29T06:04:55.175Z,2.42
2018-03-29T06:06:07.129Z,2.90
2018-03-29T06:07:14.668Z,2.45
2018-03-29T06:08:21.954Z,3.00
2018-03-29T06:09:29.573Z,2.78
2018-03-29T06:10:37.192Z,2.37
2018-03-29T06:11:43.597Z,2.87
2018-03-29T06:12:49.890Z,2.80
2018-03-29T06:14:01.491Z,2.53
2018-03-29T06:15:12.814Z,2.53
2018-03-29T06:16:21.105Z,2.87
2018-03-29T06:17:27.359Z,2.80
2018-03-29T06:18:33.576Z,2.80
2018-03-29T06:19:39.813Z,3.55
2018-03-29T06:20:46.063Z,3.97
2018-03-29T06:21:52.320Z,3.33
2018-03-29T06:22:58.922Z,3.08
2018-03-29T06:24:04.803Z,3.42
2018-03-29T06:25:10.927Z,3.67
2018-03-29T06:26:17.199Z,3.72
2018-03-29T06:27:23.481Z,3.72
2018-03-29T06:28:29.734Z,3.90
2018-03-29T06:29:35.990Z,3.90
2018-03-29T06:30:42.260Z,3.80
2018-03-29T06:31:55.745Z,3.80
2018-03-29T06:33:02.008Z,4.22
2018-03-29T06:34:13.132Z,4.78
2018-03-29T06:35:19.373Z,4.72
2018-03-29T06:36:25.343Z,4.18
2018-03-29T06:37:31.638Z,4.10
2018-03-29T06:38:37.925Z,5.15
2018-03-29T06:39:44.385Z,4.35
2018-03-29T06:40:50.632Z,4.40
2018-03-29T06:41:57.522Z,3.97
2018-03-29T06:43:07.351Z,4.20
2018-03-29T06:44:13.618Z,4.28
2018-03-29T06:45:19.892Z,4.30
2018-03-29T06:46:31.151Z,3.90
2018-03-29T06:47:40.184Z,4.35
2018-03-29T06:48:52.629Z,4.18
2018-03-29T06:50:01.929Z,5.40
2018-03-29T06:51:08.600Z,4.20
2018-03-29T06:52:14.972Z,4.75
2018-03-29T06:53:21.523Z,4.12
2018-03-29T06:54:30.133Z,4.75
2018-03-29T06:55:36.501Z,4.32
2018-03-29T06:56:42.866Z,4.32
2018-03-29T06:57:49.569Z,4.78
2018-03-29T06:59:00.911Z,4.72
2018-03-29T07:00:06.488Z,4.82
2018-03-29T07:01:12.486Z,5.47
2018-03-29T07:02:18.806Z,5.87
2018-03-29T07:03:25.084Z,5.15
2018-03-29T07:04:31.635Z,5.30
2018-03-29T07:05:38.169Z,5.35
2018-03-29T07:06:44.500Z,5.87
2018-03-29T07:07:50.754Z,5.15
2018-03-29T07:08:56.821Z,5.20
2018-03-29T07:10:03.212Z,5.57
2018-03-29T07:11:09.481Z,5.10
2018-03-29T07:12:16.049Z,5.37
2018-03-29T07:13:22.488Z,5.20
2018-03-29T07:14:29.210Z,5.65
2018-03-29T07:15:36.058Z,5.75
2018-03-29T07:16:43.338Z,5.80
2018-03-29T07:17:50.761Z,5.82
2018-03-29T07:18:57.263Z,5.30
2018-03-29T07:20:03.662Z,5.25
2018-03-29T07:21:11.240Z,5.70
2018-03-29T07:22:22.858Z,5.53
2018-03-29T07:23:29.265Z,5.82
2018-03-29T07:24:36.001Z,5.32
2018-03-29T07:25:43.137Z,5.45
2018-03-29T07:26:53.417Z,5.25
2018-03-29T07:28:00.304Z,5.47
2018-03-29T07:29:06.627Z,5.20
2018-03-29T07:30:13.688Z,5.37
2018-03-29T07:31:20.746Z,5.97
2018-03-29T07:32:28.154Z,4.93
2018-03-29T07:33:34.543Z,4.75
2018-03-29T07:34:44.910Z,5.45
2018-03-29T07:35:51.287Z,5.60
2018-03-29T07:36:57.651Z,5.97
2018-03-29T07:38:03.654Z,6.30
2018-03-29T07:39:10.890Z,5.25
2018-03-29T07:40:16.651Z,6.65
2018-03-29T07:41:23.053Z,7.15
2018-03-29T07:42:29.781Z,6.00
2018-03-29T07:43:37.494Z,6.30
2018-03-29T07:44:43.784Z,6.30
2018-03-29T07:45:50.106Z,6.15
2018-03-29T07:46:57.090Z,7.82
2018-03-29T07:48:03.464Z,6.97
2018-03-29T07:49:15.830Z,7.60
2018-03-29T07:50:25.000Z,6.97
2018-03-29T07:51:32.324Z,7.57
2018-03-29T07:52:43.549Z,7.40
2018-03-29T07:53:51.194Z,7.43
2018-03-29T07:54:57.629Z,6.95
2018-03-29T07:56:07.813Z,7.25
2018-03-29T07:57:14.786Z,6.50
2018-03-29T07:58:25.949Z,6.60
2018-03-29T07:59:32.316Z,6.40
2018-03-29T08:00:38.738Z,6.40
2018-03-29T08:01:44.933Z,6.32
2018-03-29T08:02:51.307Z,5.80
2018-03-29T08:04:02.876Z,5.95
2018-03-29T08:05:09.248Z,7.10
2018-03-29T08:06:15.757Z,5.87
2018-03-29T08:07:22.322Z,5.47
2018-03-29T08:08:28.724Z,5.90
2018-03-29T08:09:35.080Z,6.60
2018-03-29T08:10:41.637Z,5.80
2018-03-29T08:11:48.019Z,6.25
2018-03-29T08:12:54.394Z,5.95
2018-03-29T08:14:00.895Z,5.87
2018-03-29T08:15:06.894Z,5.22
2018-03-29T08:16:13.218Z,5.12
2018-03-29T08:17:19.566Z,5.20
2018-03-29T08:18:25.932Z,5.55
2018-03-29T08:19:32.247Z,5.07
2018-03-29T08:20:38.621Z,6.00
2018-03-29T08:21:44.955Z,5.20
2018-03-29T08:22:51.580Z,5.60
2018-03-29T08:24:04.725Z,4.95
2018-03-29T08:25:11.006Z,5.65
2018-03-29T08:26:17.476Z,5.35
2018-03-29T08:27:23.851Z,5.55
2018-03-29T08:28:30.222Z,4.97
2018-03-29T08:29:37.752Z,4.87
2018-03-29T08:30:44.095Z,5.55
2018-03-29T08:31:53.997Z,5.85
2018-03-29T08:33:05.258Z,5.45
2018-03-29T08:34:11.830Z,5.50
2018-03-29T08:35:18.154Z,5.32
2018-03-29T08:36:25.058Z,5.20
2018-03-29T08:37:31.748Z,4.80
2018-03-29T08:38:38.388Z,5.18
2018-03-29T08:39:45.759Z,6.28
2018-03-29T08:40:52.177Z,5.62
2018-03-29T08:41:58.593Z,6.28
2018-03-29T08:43:05.077Z,5.45
2018-03-29T08:44:11.397Z,5.05
2018-03-29T08:45:26.911Z,5.30
2018-03-29T08:46:33.312Z,5.45
2018-03-29T08:47:39.592Z,5.30
2018-03-29T08:48:45.777Z,5.00
2018-03-29T08:49:55.200Z,4.93
2018-03-29T08:51:01.574Z,4.53
2018-03-29T08:52:07.924Z,4.65
2018-03-29T08:53:19.824Z,4.47
2018-03-29T08:54:32.444Z,4.50
2018-03-29T08:55:39.286Z,4.22
2018-03-29T08:56:46.245Z,4.55
2018-03-29T08:57:54.323Z,4.87
2018-03-29T08:59:00.870Z,4.65
2018-03-29T09:00:07.540Z,4.80
2018-03-29T09:01:14.016Z,4.53
2018-03-29T09:02:20.385Z,4.03
2018-03-29T09:03:29.349Z,4.62
2018-03-29T09:04:42.399Z,4.75
2018-03-29T09:05:49.853Z,4.80
2018-03-29T09:07:00.739Z,4.97
2018-03-29T09:08:06.686Z,5.28
2018-03-29T09:09:13.031Z,5.30
2018-03-29T09:10:19.375Z,5.50
2018-03-29T09:11:25.761Z,5.32
2018-03-29T09:12:32.083Z,5.45
2018-03-29T09:13:38.707Z,4.75
2018-03-29T09:14:49.013Z,4.68
2018-03-29T09:16:00.800Z,5.37
2018-03-29T09:17:07.275Z,5.40
2018-03-29T09:18:13.704Z,5.50
2018-03-29T09:19:23.898Z,5.55
2018-03-29T09:20:31.199Z,5.47
2018-03-29T09:21:42.657Z,5.87
2018-03-29T09:22:49.542Z,5.72
2018-03-29T09:23:56.633Z,6.72
2018-03-29T09:25:03.057Z,5.72
2018-03-29T09:26:09.705Z,5.47
2018-03-29T09:27:20.962Z,6.40
2018-03-29T09:28:27.436Z,5.55
2018-03-29T09:29:34.139Z,6.22
2018-03-29T09:30:40.740Z,6.03
2018-03-29T09:31:49.953Z,5.32
2018-03-29T09:32:56.279Z,6.03
2018-03-29T09:34:03.403Z,6.15
2018-03-29T09:35:10.792Z,5.18
2018-03-29T09:36:17.145Z,6.18
2018-03-29T09:37:23.905Z,6.00
2018-03-29T09:38:30.335Z,5.68
2018-03-29T09:39:42.808Z,5.65
2018-03-29T09:40:50.610Z,6.20
2018-03-29T09:41:57.012Z,6.07
2018-03-29T09:43:03.490Z,5.55
2018-03-29T09:44:10.737Z,5.07
2018-03-29T09:45:18.309Z,5.95
2018-03-29T09:46:28.683Z,4.80
2018-03-29T09:47:44.051Z,5.80
2018-03-29T09:48:51.422Z,4.82
2018-03-29T09:49:58.753Z,5.35
2018-03-29T09:51:05.387Z,4.55
2018-03-29T09:52:11.809Z,4.90
2018-03-29T09:53:18.216Z,3.92
2018-03-29T09:54:25.491Z,4.65
2018-03-29T09:55:32.236Z,4.30
2018-03-29T09:56:39.511Z,3.37
2018-03-29T09:57:46.229Z,4.00
2018-03-29T09:58:53.216Z,4.25
2018-03-29T09:59:59.700Z,3.85
2018-03-29T10:01:07.739Z,3.62
2018-03-29T10:02:19.470Z,4.35
2018-03-29T10:03:29.415Z,4.80
2018-03-29T10:04:36.495Z,3.83
2018-03-29T10:05:42.557Z,3.80
2018-03-29T10:06:49.044Z,3.90
2018-03-29T10:07:55.913Z,4.50
2018-03-29T10:09:02.625Z,4.10
2018-03-29T10:10:09.669Z,4.25
2018-03-29T10:11:16.275Z,4.78
2018-03-29T10:12:24.475Z,4.75
2018-03-29T10:13:30.937Z,4.00
2018-03-29T10:14:38.275Z,4.57
2018-03-29T10:15:44.623Z,4.00
2018-03-29T10:16:51.935Z,3.72
2018-03-29T10:17:59.809Z,3.87
2018-03-29T10:19:06.403Z,3.85
2018-03-29T10:20:14.180Z,4.37
2018-03-29T10:21:23.886Z,3.80
2018-03-29T10:22:30.220Z,3.90
2018-03-29T10:23:36.634Z,4.10
2018-03-29T10:24:42.968Z,4.30
2018-03-29T10:25:49.279Z,3.45
2018-03-29T10:26:55.629Z,4.25
2018-03-29T10:28:01.924Z,4.18
2018-03-29T10:29:09.138Z,4.50
2018-03-29T10:30:16.642Z,4.12
2018-03-29T10:31:23.874Z,4.43
2018-03-29T10:32:34.304Z,3.80
2018-03-29T10:33:41.728Z,4.20
2018-03-29T10:34:48.081Z,3.83
2018-03-29T10:35:54.417Z,4.18
2018-03-29T10:37:01.992Z,4.40
2018-03-29T10:38:11.882Z,4.43
2018-03-29T10:39:28.576Z,4.43
2018-03-29T10:40:36.710Z,4.62
2018-03-29T10:41:43.437Z,4.22
2018-03-29T10:42:50.436Z,4.50
2018-03-29T10:43:59.044Z,4.65
2018-03-29T10:45:06.962Z,4.35
2018-03-29T10:46:13.951Z,4.70
2018-03-29T10:47:21.865Z,4.82
2018-03-29T10:48:29.714Z,4.93
2018-03-29T10:49:36.720Z,4.22
2018-03-29T10:50:45.098Z,4.03
2018-03-29T10:51:52.728Z,4.85
2018-03-29T10:52:59.445Z,4.82
2018-03-29T10:54:05.748Z,4.05
2018-03-29T10:55:13.244Z,4.40
2018-03-29T10:56:19.641Z,4.60
2018-03-29T10:57:26.466Z,4.12
2018-03-29T10:58:38.933Z,4.80
2018-03-29T10:59:50.018Z,4.10
2018-03-29T11:01:04.932Z,4.25
2018-03-29T11:02:10.896Z,4.32
2018-03-29T11:03:17.385Z,4.50
2018-03-29T11:04:23.859Z,5.62
2018-03-29T11:05:30.167Z,4.35
2018-03-29T11:06:36.391Z,4.90
2018-03-29T11:07:42.636Z,4.12
2018-03-29T11:08:48.922Z,4.28
2018-03-29T11:09:55.231Z,5.37
2018-03-29T11:11:06.960Z,4.35
2018-03-29T11:12:13.279Z,4.75
2018-03-29T11:13:22.513Z,5.32
2018-03-29T11:14:28.877Z,5.07
2018-03-29T11:15:35.162Z,3.72
2018-03-29T11:16:42.630Z,4.78
2018-03-29T11:17:49.323Z,4.60
2018-03-29T11:18:55.615Z,5.55
2018-03-29T11:20:01.985Z,4.50
2018-03-29T11:21:08.312Z,5.30
2018-03-29T11:22:23.951Z,4.95
2018-03-29T11:23:31.612Z,4.40
2018-03-29T11:24:38.001Z,5.05
2018-03-29T11:25:44.479Z,4.80
2018-03-29T11:26:50.796Z,4.90
2018-03-29T11:27:57.133Z,5.82
2018-03-29T11:29:03.403Z,5.68
2018-03-29T11:30:09.718Z,5.97
2018-03-29T11:31:16.018Z,5.37
2018-03-29T11:32:22.320Z,5.50
2018-03-29T11:33:28.717Z,6.05
2018-03-29T11:34:40.487Z,4.87
2018-03-29T11:35:47.517Z,6.07
2018-03-29T11:36:53.794Z,6.05
2018-03-29T11:38:04.713Z,5.78
2018-03-29T11:39:11.327Z,5.95
2018-03-29T11:40:25.780Z,6.35
2018-03-29T11:41:34.292Z,5.60
2018-03-29T11:42:40.646Z,6.28
2018-03-29T11:43:47.894Z,6.28
2018-03-29T11:44:55.086Z,6.62
2018-03-29T11:46:03.274Z,6.37
2018-03-29T11:47:09.645Z,7.10
2018-03-29T11:48:15.939Z,6.68
2018-03-29T11:49:22.507Z,7.37
2018-03-29T11:50:30.802Z,7.07
2018-03-29T11:51:37.129Z,6.90
2018-03-29T11:52:44.275Z,7.53
2018-03-29T11:53:50.504Z,7.30
2018-03-29T11:54:56.857Z,7.43
2018-03-29T11:56:04.245Z,7.40
2018-03-29T11:57:10.603Z,7.75
2018-03-29T11:58:22.040Z,9.25
2018-03-29T11:59:28.101Z,7.80
2018-03-29T12:00:34.372Z,8.10
2018-03-29T12:01:40.365Z,7.90
2018-03-29T12:02:46.611Z,8.52
2018-03-29T12:03:54.150Z,7.68
2018-03-29T12:05:09.647Z,7.80
2018-03-29T12:06:17.067Z,7.62
2018-03-29T12:07:28.403Z,8.95
2018-03-29T12:08:34.723Z,8.90
2018-03-29T12:09:41.047Z,8.57
2018-03-29T12:10:47.293Z,8.40
2018-03-29T12:11:53.553Z,8.60
2018-03-29T12:12:59.836Z,8.13
2018-03-29T12:14:06.727Z,9.10
2018-03-29T12:15:14.932Z,8.80
2018-03-29T12:16:26.319Z,8.15
2018-03-29T12:17:32.583Z,8.88
2018-03-29T12:18:38.833Z,7.90
2018-03-29T12:19:47.640Z,7.72
2018-03-29T12:20:55.894Z,8.00
2018-03-29T12:22:02.225Z,8.20
2018-03-29T12:23:12.069Z,7.55
2018-03-29T12:24:18.406Z,10.15
2018-03-29T12:25:24.875Z,8.32
2018-03-29T12:26:31.197Z,9.15
2018-03-29T12:27:42.604Z,9.18
2018-03-29T12:28:49.921Z,8.75
2018-03-29T12:29:56.219Z,8.85
2018-03-29T12:31:02.471Z,8.45
2018-03-29T12:32:10.905Z,8.45
2018-03-29T12:33:17.169Z,8.73
2018-03-29T12:34:23.445Z,8.20
2018-03-29T12:35:35.391Z,7.43
2018-03-29T12:36:41.708Z,8.82
2018-03-29T12:37:47.995Z,8.88
2018-03-29T12:38:54.426Z,7.62
2018-03-29T12:40:04.073Z,7.53
2018-03-29T12:41:10.373Z,8.52
2018-03-29T12:42:16.640Z,9.02
2018-03-29T12:43:22.922Z,8.15
2018-03-29T12:44:29.218Z,8.05
2018-03-29T12:45:36.768Z,8.85
2018-03-29T12:46:44.823Z,8.50
2018-03-29T12:47:57.343Z,8.30
2018-03-29T12:49:04.099Z,8.23
2018-03-29T12:50:10.436Z,8.30
2018-03-29T12:51:18.585Z,8.82
2018-03-29T12:52:24.861Z,8.93
2018-03-29T12:53:31.287Z,10.30
2018-03-29T12:54:48.742Z,9.85
2018-03-29T12:55:54.950Z,9.60
2018-03-29T12:57:12.164Z,8.65
2018-03-29T12:58:19.072Z,8.80
2018-03-29T12:59:25.741Z,9.45
2018-03-29T13:00:32.247Z,8.68
2018-03-29T13:01:38.548Z,9.27
2018-03-29T13:02:48.612Z,8.70
2018-03-29T13:03:54.860Z,9.02
2018-03-29T13:05:02.526Z,9.32
2018-03-29T13:06:08.752Z,9.18
2018-03-29T13:07:15.951Z,9.68
2018-03-29T13:08:22.166Z,9.63
2018-03-29T13:09:28.474Z,8.77
2018-03-29T13:10:35.695Z,9.40
2018-03-29T13:11:45.404Z,10.50
2018-03-29T13:12:51.619Z,9.60
2018-03-29T13:13:57.943Z,10.02
2018-03-29T13:15:08.159Z,9.13
2018-03-29T13:16:16.974Z,10.77
2018-03-29T13:17:29.049Z,9.13
2018-03-29T13:18:38.240Z,9.23
2018-03-29T13:19:44.271Z,9.77
2018-03-29T13:20:50.577Z,9.70
2018-03-29T13:21:57.246Z,9.48
2018-03-29T13:23:05.756Z,10.23
2018-03-29T13:24:11.772Z,8.82
2018-03-29T13:25:18.760Z,9.88
2018-03-29T13:26:25.016Z,10.70
2018-03-29T13:27:32.921Z,9.30
2018-03-29T13:28:38.944Z,9.63
2018-03-29T13:29:45.209Z,10.05
2018-03-29T13:30:51.269Z,10.90
2018-03-29T13:31:58.707Z,9.60
2018-03-29T13:33:06.479Z,10.32
2018-03-29T13:34:12.834Z,10.20
2018-03-29T13:35:23.075Z,8.52
2018-03-29T13:36:29.711Z,10.23
2018-03-29T13:37:36.212Z,9.48
2018-03-29T13:38:42.585Z,10.60
2018-03-29T13:39:48.855Z,10.15
2018-03-29T13:40:55.136Z,10.07
2018-03-29T13:42:09.352Z,10.20
2018-03-29T13:43:15.637Z,10.18
2018-03-29T13:44:24.155Z,10.25
2018-03-29T13:45:30.166Z,9.18
2018-03-29T13:46:39.029Z,10.63
2018-03-29T13:47:45.340Z,10.55
2018-03-29T13:48:51.441Z,9.95
2018-03-29T13:49:57.732Z,10.80
2018-03-29T13:51:04.028Z,9.50
2018-03-29T13:52:15.355Z,10.05
2018-03-29T13:53:25.492Z,8.95
2018-03-29T13:54:31.587Z,9.75
2018-03-29T13:55:37.906Z,10.15
2018-03-29T13:56:49.100Z,11.18
2018-03-29T13:57:59.396Z,10.13
2018-03-29T13:59:05.966Z,10.40
2018-03-29T14:00:16.403Z,9.88
2018-03-29T14:01:22.723Z,10.10
2018-03-29T14:02:29.617Z,10.10
2018-03-29T14:03:35.963Z,9.90
2018-03-29T14:04:51.217Z,10.48
2018-03-29T14:05:58.889Z,10.27
2018-03-29T14:07:05.248Z,11.02
2018-03-29T14:08:11.254Z,10.73
2018-03-29T14:09:17.248Z,10.13
2018-03-29T14:10:25.563Z,11.10
2018-03-29T14:11:32.481Z,10.23
2018-03-29T14:12:40.981Z,12.18
2018-03-29T14:13:47.236Z,11.18
2018-03-29T14:14:53.835Z,11.43
2018-03-29T14:16:00.130Z,11.20
2018-03-29T14:17:12.528Z,10.82
2018-03-29T14:18:18.849Z,10.82
2018-03-29T14:19:25.162Z,11.88
2018-03-29T14:20:31.478Z,11.38
2018-03-29T14:21:37.855Z,10.75
2018-03-29T14:22:44.189Z,11.98
2018-03-29T14:23:56.978Z,11.85
2018-03-29T14:25:03.464Z,11.82
2018-03-29T14:26:13.581Z,16.52
2018-03-29T14:27:19.476Z,29.25
2018-03-29T14:28:27.319Z,37.13
2018-03-29T14:29:33.955Z,15.85
2018-03-29T14:30:39.977Z,12.27
2018-03-29T14:31:46.273Z,16.65
2018-03-29T14:32:52.443Z,13.05
2018-03-29T14:33:59.949Z,11.10
2018-03-29T14:35:06.320Z,11.98
2018-03-29T14:36:12.691Z,11.75
2018-03-29T14:37:19.048Z,11.68
2018-03-29T14:38:28.486Z,11.50
2018-03-29T14:39:37.243Z,11.27
2018-03-29T14:40:43.545Z,11.60
2018-03-29T14:41:53.591Z,10.65
2018-03-29T14:43:00.033Z,12.00
2018-03-29T14:44:11.889Z,12.70
2018-03-29T14:45:17.890Z,11.60
2018-03-29T14:46:29.180Z,10.60
2018-03-29T14:47:35.101Z,10.68
2018-03-29T14:48:42.671Z,9.57
2018-03-29T14:49:48.965Z,10.02